sensor_id;sensor_type;location;lat;lon;timestamp;pressure;altitude;pressure_sealevel;temperature;humidity
36234;BME280;43467;50.890;5.982;2022-11-20T00:00:52;99824.25;;;7.34;68.57
36234;BME280;43467;50.890;5.982;2022-11-20T00:03:18;99829.34;;;7.39;68.58
36234;BME280;43467;50.890;5.982;2022-11-20T00:05:44;99826.72;;;7.39;68.27
36234;BME280;43467;50.890;5.982;2022-11-20T00:08:09;99820.53;;;7.40;68.54
36234;BME280;43467;50.890;5.982;2022-11-20T00:10:39;99818.81;;;7.39;68.49
36234;BME280;43467;50.890;5.982;2022-11-20T00:13:05;99821.59;;;7.36;69.00
36234;BME280;43467;50.890;5.982;2022-11-20T00:15:30;99808.56;;;7.10;69.08
36234;BME280;43467;50.890;5.982;2022-11-20T00:17:56;99823.09;;;7.20;68.96
36234;BME280;43467;50.890;5.982;2022-11-20T00:20:21;99819.94;;;7.10;69.46
36234;BME280;43467;50.890;5.982;2022-11-20T00:22:47;99815.59;;;7.09;69.75
36234;BME280;43467;50.890;5.982;2022-11-20T00:25:12;99813.03;;;7.08;69.83
36234;BME280;43467;50.890;5.982;2022-11-20T00:27:38;99811.34;;;7.05;69.47
36234;BME280;43467;50.890;5.982;2022-11-20T00:30:04;99815.78;;;7.05;69.57
36234;BME280;43467;50.890;5.982;2022-11-20T00:32:30;99819.09;;;7.10;69.61
36234;BME280;43467;50.890;5.982;2022-11-20T00:34:55;99815.53;;;7.11;69.13
36234;BME280;43467;50.890;5.982;2022-11-20T00:37:21;99810.72;;;7.22;69.07
36234;BME280;43467;50.890;5.982;2022-11-20T00:39:46;99812.63;;;7.18;69.19
36234;BME280;43467;50.890;5.982;2022-11-20T00:42:12;99819.31;;;7.27;69.17
36234;BME280;43467;50.890;5.982;2022-11-20T00:44:37;99821.03;;;7.28;68.75
36234;BME280;43467;50.890;5.982;2022-11-20T00:47:03;99809.41;;;7.33;69.15
36234;BME280;43467;50.890;5.982;2022-11-20T00:49:28;99800.25;;;7.42;69.01
36234;BME280;43467;50.890;5.982;2022-11-20T00:51:54;99807.94;;;7.48;68.36
36234;BME280;43467;50.890;5.982;2022-11-20T00:54:19;99813.16;;;7.50;68.46
36234;BME280;43467;50.890;5.982;2022-11-20T00:56:44;99808.78;;;7.48;67.99
36234;BME280;43467;50.890;5.982;2022-11-20T00:59:10;99800.38;;;7.39;68.04
36234;BME280;43467;50.890;5.982;2022-11-20T01:01:36;99801.97;;;7.43;68.42
36234;BME280;43467;50.890;5.982;2022-11-20T01:04:02;99809.09;;;7.41;68.11
36234;BME280;43467;50.890;5.982;2022-11-20T01:06:29;99805.59;;;7.40;68.03
36234;BME280;43467;50.890;5.982;2022-11-20T01:08:57;99807.44;;;7.38;68.09
36234;BME280;43467;50.890;5.982;2022-11-20T01:11:29;99799.22;;;7.46;68.21
36234;BME280;43467;50.890;5.982;2022-11-20T01:13:57;99795.81;;;7.44;68.04
36234;BME280;43467;50.890;5.982;2022-11-20T01:16:32;99796.41;;;7.51;67.67
36234;BME280;43467;50.890;5.982;2022-11-20T01:19:00;99786.19;;;7.43;67.81
36234;BME280;43467;50.890;5.982;2022-11-20T01:21:31;99787.78;;;7.47;68.22
36234;BME280;43467;50.890;5.982;2022-11-20T01:23:57;99782.69;;;7.42;68.31
36234;BME280;43467;50.890;5.982;2022-11-20T01:26:31;99790.41;;;7.47;68.23
36234;BME280;43467;50.890;5.982;2022-11-20T01:28:58;99782.38;;;7.28;68.57
36234;BME280;43467;50.890;5.982;2022-11-20T01:31:31;99783.34;;;7.26;68.86
36234;BME280;43467;50.890;5.982;2022-11-20T01:33:59;99777.34;;;7.22;68.87
36234;BME280;43467;50.890;5.982;2022-11-20T01:36:27;99785.03;;;7.28;68.85
36234;BME280;43467;50.890;5.982;2022-11-20T01:38:58;99781.41;;;7.31;69.12
36234;BME280;43467;50.890;5.982;2022-11-20T01:41:25;99778.94;;;7.26;69.27
36234;BME280;43467;50.890;5.982;2022-11-20T01:44:12;99785.41;;;7.18;69.47
36234;BME280;43467;50.890;5.982;2022-11-20T01:47:00;99785.03;;;7.05;69.56
36234;BME280;43467;50.890;5.982;2022-11-20T01:49:48;99791.16;;;7.06;69.76
36234;BME280;43467;50.890;5.982;2022-11-20T01:52:18;99794.69;;;6.83;70.66
36234;BME280;43467;50.890;5.982;2022-11-20T01:54:52;99780.03;;;6.76;70.92
36234;BME280;43467;50.890;5.982;2022-11-20T01:57:20;99781.56;;;6.81;71.20
36234;BME280;43467;50.890;5.982;2022-11-20T01:59:52;99779.50;;;6.89;70.98
36234;BME280;43467;50.890;5.982;2022-11-20T02:02:20;99774.59;;;7.04;70.67
36234;BME280;43467;50.890;5.982;2022-11-20T02:04:47;99769.75;;;7.15;69.99
36234;BME280;43467;50.890;5.982;2022-11-20T02:07:13;99764.34;;;7.18;70.19
36234;BME280;43467;50.890;5.982;2022-11-20T02:09:38;99759.84;;;7.21;70.06
36234;BME280;43467;50.890;5.982;2022-11-20T02:12:04;99760.78;;;7.20;70.18
36234;BME280;43467;50.890;5.982;2022-11-20T02:14:30;99768.38;;;7.28;70.21
36234;BME280;43467;50.890;5.982;2022-11-20T02:16:55;99767.38;;;7.30;70.39
36234;BME280;43467;50.890;5.982;2022-11-20T02:19:27;99764.56;;;7.35;70.57
36234;BME280;43467;50.890;5.982;2022-11-20T02:22:17;99762.66;;;7.38;70.65
36234;BME280;43467;50.890;5.982;2022-11-20T02:24:45;99758.50;;;7.33;71.23
36234;BME280;43467;50.890;5.982;2022-11-20T02:27:13;99762.09;;;7.30;71.23
36234;BME280;43467;50.890;5.982;2022-11-20T02:29:52;99761.78;;;7.38;71.33
36234;BME280;43467;50.890;5.982;2022-11-20T02:34:51;99755.38;;;7.45;70.85
36234;BME280;43467;50.890;5.982;2022-11-20T02:37:17;99753.41;;;7.50;70.73
36234;BME280;43467;50.890;5.982;2022-11-20T02:39:45;99751.56;;;7.52;70.52
36234;BME280;43467;50.890;5.982;2022-11-20T02:42:11;99762.88;;;7.54;70.65
36234;BME280;43467;50.890;5.982;2022-11-20T02:44:36;99768.91;;;7.36;71.06
36234;BME280;43467;50.890;5.982;2022-11-20T02:47:02;99774.72;;;7.22;70.95
36234;BME280;43467;50.890;5.982;2022-11-20T02:49:27;99765.53;;;7.11;71.11
36234;BME280;43467;50.890;5.982;2022-11-20T02:51:52;99771.69;;;7.10;71.67
36234;BME280;43467;50.890;5.982;2022-11-20T02:54:18;99767.78;;;6.98;72.10
36234;BME280;43467;50.890;5.982;2022-11-20T02:56:43;99769.28;;;6.82;72.76
36234;BME280;43467;50.890;5.982;2022-11-20T02:59:09;99774.78;;;6.76;73.26
36234;BME280;43467;50.890;5.982;2022-11-20T03:01:35;99776.19;;;6.61;73.19
36234;BME280;43467;50.890;5.982;2022-11-20T03:04:00;99767.88;;;6.25;73.97
36234;BME280;43467;50.890;5.982;2022-11-20T03:06:26;99766.97;;;6.26;73.93
36234;BME280;43467;50.890;5.982;2022-11-20T03:08:51;99778.84;;;6.12;74.22
36234;BME280;43467;50.890;5.982;2022-11-20T03:11:17;99769.88;;;6.19;73.92
36234;BME280;43467;50.890;5.982;2022-11-20T03:13:43;99767.16;;;6.20;73.25
36234;BME280;43467;50.890;5.982;2022-11-20T03:16:11;99766.56;;;6.12;72.77
36234;BME280;43467;50.890;5.982;2022-11-20T03:18:37;99772.69;;;6.13;72.65
36234;BME280;43467;50.890;5.982;2022-11-20T03:21:03;99767.31;;;6.16;72.88
36234;BME280;43467;50.890;5.982;2022-11-20T03:23:29;99780.56;;;6.13;73.37
36234;BME280;43467;50.890;5.982;2022-11-20T03:25:56;99775.00;;;6.22;72.78
36234;BME280;43467;50.890;5.982;2022-11-20T03:28:21;99764.34;;;6.26;72.54
36234;BME280;43467;50.890;5.982;2022-11-20T03:30:47;99772.84;;;6.33;72.44
36234;BME280;43467;50.890;5.982;2022-11-20T03:33:12;99774.16;;;6.21;72.66
36234;BME280;43467;50.890;5.982;2022-11-20T03:35:38;99763.59;;;6.23;72.76
36234;BME280;43467;50.890;5.982;2022-11-20T03:38:03;99764.44;;;6.23;72.19
36234;BME280;43467;50.890;5.982;2022-11-20T03:40:28;99759.13;;;6.25;72.45
36234;BME280;43467;50.890;5.982;2022-11-20T03:42:53;99751.88;;;6.31;72.11
36234;BME280;43467;50.890;5.982;2022-11-20T03:45:19;99752.22;;;6.22;71.85
36234;BME280;43467;50.890;5.982;2022-11-20T03:47:45;99751.97;;;6.28;71.95
36234;BME280;43467;50.890;5.982;2022-11-20T03:50:12;99755.69;;;6.23;71.89
36234;BME280;43467;50.890;5.982;2022-11-20T03:52:39;99746.25;;;6.17;71.32
36234;BME280;43467;50.890;5.982;2022-11-20T03:55:06;99746.41;;;6.13;71.44
36234;BME280;43467;50.890;5.982;2022-11-20T03:57:32;99747.81;;;6.23;71.46
36234;BME280;43467;50.890;5.982;2022-11-20T03:59:57;99743.66;;;6.16;71.24
36234;BME280;43467;50.890;5.982;2022-11-20T04:02:23;99749.63;;;6.21;71.86
36234;BME280;43467;50.890;5.982;2022-11-20T04:04:48;99751.22;;;6.25;71.08
36234;BME280;43467;50.890;5.982;2022-11-20T04:07:13;99754.44;;;6.33;70.87
36234;BME280;43467;50.890;5.982;2022-11-20T04:09:39;99742.56;;;6.23;71.13
36234;BME280;43467;50.890;5.982;2022-11-20T04:12:05;99739.06;;;6.22;71.28
36234;BME280;43467;50.890;5.982;2022-11-20T04:14:32;99743.22;;;6.28;70.84
36234;BME280;43467;50.890;5.982;2022-11-20T04:20:16;99743.34;;;6.25;71.08
36234;BME280;43467;50.890;5.982;2022-11-20T04:22:43;99743.88;;;6.34;70.74
36234;BME280;43467;50.890;5.982;2022-11-20T04:25:09;99744.22;;;6.25;70.91
36234;BME280;43467;50.890;5.982;2022-11-20T04:27:36;99749.94;;;6.36;70.63
36234;BME280;43467;50.890;5.982;2022-11-20T04:30:04;99742.19;;;6.32;70.22
36234;BME280;43467;50.890;5.982;2022-11-20T04:32:31;99739.69;;;6.29;70.45
36234;BME280;43467;50.890;5.982;2022-11-20T04:35:06;99741.69;;;6.22;70.53
36234;BME280;43467;50.890;5.982;2022-11-20T04:37:33;99745.47;;;6.15;70.61
36234;BME280;43467;50.890;5.982;2022-11-20T04:40:00;99749.94;;;6.12;71.04
36234;BME280;43467;50.890;5.982;2022-11-20T04:42:27;99745.06;;;6.01;71.63
36234;BME280;43467;50.890;5.982;2022-11-20T04:44:53;99743.28;;;6.03;72.00
36234;BME280;43467;50.890;5.982;2022-11-20T04:47:18;99744.91;;;6.05;72.25
36234;BME280;43467;50.890;5.982;2022-11-20T04:49:44;99752.47;;;6.15;71.46
36234;BME280;43467;50.890;5.982;2022-11-20T04:52:09;99744.75;;;6.10;71.64
36234;BME280;43467;50.890;5.982;2022-11-20T04:54:34;99755.97;;;5.90;71.80
36234;BME280;43467;50.890;5.982;2022-11-20T04:57:00;99753.34;;;5.90;71.85
36234;BME280;43467;50.890;5.982;2022-11-20T04:59:25;99750.44;;;5.72;72.24
36234;BME280;43467;50.890;5.982;2022-11-20T05:01:50;99752.00;;;5.77;72.58
36234;BME280;43467;50.890;5.982;2022-11-20T05:04:16;99753.72;;;5.78;72.58
36234;BME280;43467;50.890;5.982;2022-11-20T05:06:41;99762.13;;;5.89;72.51
36234;BME280;43467;50.890;5.982;2022-11-20T05:09:06;99761.16;;;5.66;72.87
36234;BME280;43467;50.890;5.982;2022-11-20T05:11:32;99757.38;;;5.74;72.93
36234;BME280;43467;50.890;5.982;2022-11-20T05:13:58;99754.81;;;5.71;72.82
36234;BME280;43467;50.890;5.982;2022-11-20T05:16:24;99758.41;;;5.69;73.22
36234;BME280;43467;50.890;5.982;2022-11-20T05:18:51;99766.00;;;5.51;74.04
36234;BME280;43467;50.890;5.982;2022-11-20T05:21:17;99751.50;;;5.66;73.90
36234;BME280;43467;50.890;5.982;2022-11-20T05:23:43;99751.88;;;5.80;73.55
36234;BME280;43467;50.890;5.982;2022-11-20T05:26:17;99746.75;;;5.77;73.56
36234;BME280;43467;50.890;5.982;2022-11-20T05:28:43;99740.28;;;5.87;73.74
36234;BME280;43467;50.890;5.982;2022-11-20T05:31:13;99735.53;;;5.98;73.57
36234;BME280;43467;50.890;5.982;2022-11-20T05:33:40;99726.78;;;5.98;73.44
36234;BME280;43467;50.890;5.982;2022-11-20T05:36:07;99714.97;;;5.85;73.72
36234;BME280;43467;50.890;5.982;2022-11-20T05:38:33;99720.22;;;5.86;74.34
36234;BME280;43467;50.890;5.982;2022-11-20T05:41:11;99718.56;;;5.82;74.69
36234;BME280;43467;50.890;5.982;2022-11-20T05:43:38;99722.59;;;5.92;74.53
36234;BME280;43467;50.890;5.982;2022-11-20T05:46:05;99725.78;;;5.76;74.84
36234;BME280;43467;50.890;5.982;2022-11-20T05:48:32;99723.53;;;5.65;75.36
36234;BME280;43467;50.890;5.982;2022-11-20T05:51:02;99725.06;;;5.71;75.68
36234;BME280;43467;50.890;5.982;2022-11-20T05:53:29;99723.81;;;5.56;75.69
36234;BME280;43467;50.890;5.982;2022-11-20T05:56:20;99732.78;;;5.75;75.71
36234;BME280;43467;50.890;5.982;2022-11-20T05:58:46;99735.66;;;5.69;76.07
36234;BME280;43467;50.890;5.982;2022-11-20T06:01:30;99734.81;;;5.67;76.33
36234;BME280;43467;50.890;5.982;2022-11-20T06:03:55;99738.38;;;5.66;76.81
36234;BME280;43467;50.890;5.982;2022-11-20T06:06:21;99735.91;;;5.61;76.88
36234;BME280;43467;50.890;5.982;2022-11-20T06:08:47;99741.75;;;5.70;77.38
36234;BME280;43467;50.890;5.982;2022-11-20T06:11:14;99736.94;;;5.82;76.97
36234;BME280;43467;50.890;5.982;2022-11-20T06:13:40;99739.78;;;5.76;76.67
36234;BME280;43467;50.890;5.982;2022-11-20T06:16:05;99740.63;;;5.77;77.68
36234;BME280;43467;50.890;5.982;2022-11-20T06:18:32;99743.28;;;5.75;77.53
36234;BME280;43467;50.890;5.982;2022-11-20T06:21:18;99747.28;;;5.62;78.13
36234;BME280;43467;50.890;5.982;2022-11-20T06:23:44;99736.81;;;5.60;78.00
36234;BME280;43467;50.890;5.982;2022-11-20T06:28:40;99749.06;;;5.60;78.56
36234;BME280;43467;50.890;5.982;2022-11-20T06:31:07;99754.97;;;5.67;78.31
36234;BME280;43467;50.890;5.982;2022-11-20T06:33:34;99759.81;;;5.54;78.70
36234;BME280;43467;50.890;5.982;2022-11-20T06:36:00;99755.22;;;5.59;78.75
36234;BME280;43467;50.890;5.982;2022-11-20T06:38:27;99759.38;;;5.66;78.46
36234;BME280;43467;50.890;5.982;2022-11-20T06:40:53;99763.53;;;5.73;78.22
36234;BME280;43467;50.890;5.982;2022-11-20T06:43:18;99759.91;;;5.76;78.09
36234;BME280;43467;50.890;5.982;2022-11-20T06:45:44;99759.72;;;5.55;78.78
36234;BME280;43467;50.890;5.982;2022-11-20T06:48:09;99771.53;;;5.42;79.02
36234;BME280;43467;50.890;5.982;2022-11-20T06:50:37;99762.44;;;5.54;79.41
36234;BME280;43467;50.890;5.982;2022-11-20T06:53:03;99759.47;;;5.63;78.60
36234;BME280;43467;50.890;5.982;2022-11-20T06:55:30;99751.69;;;5.60;78.34
36234;BME280;43467;50.890;5.982;2022-11-20T06:57:55;99753.53;;;5.58;78.74
36234;BME280;43467;50.890;5.982;2022-11-20T07:00:21;99762.44;;;5.54;78.75
36234;BME280;43467;50.890;5.982;2022-11-20T07:02:46;99761.75;;;5.47;78.85
36234;BME280;43467;50.890;5.982;2022-11-20T07:05:11;99765.22;;;5.48;79.04
36234;BME280;43467;50.890;5.982;2022-11-20T07:07:37;99759.25;;;5.43;79.55
36234;BME280;43467;50.890;5.982;2022-11-20T07:10:02;99760.69;;;5.53;79.49
36234;BME280;43467;50.890;5.982;2022-11-20T07:12:28;99752.56;;;5.60;79.01
36234;BME280;43467;50.890;5.982;2022-11-20T07:14:53;99750.72;;;5.62;78.54
36234;BME280;43467;50.890;5.982;2022-11-20T07:17:19;99758.94;;;5.53;79.15
36234;BME280;43467;50.890;5.982;2022-11-20T07:19:44;99743.19;;;5.53;79.20
36234;BME280;43467;50.890;5.982;2022-11-20T07:22:09;99755.06;;;5.63;78.77
36234;BME280;43467;50.890;5.982;2022-11-20T07:24:35;99754.69;;;5.49;79.47
36234;BME280;43467;50.890;5.982;2022-11-20T07:27:00;99756.56;;;5.46;79.20
36234;BME280;43467;50.890;5.982;2022-11-20T07:29:26;99749.53;;;5.46;79.27
36234;BME280;43467;50.890;5.982;2022-11-20T07:31:51;99752.72;;;5.56;78.93
36234;BME280;43467;50.890;5.982;2022-11-20T07:34:16;99750.59;;;5.41;79.65
36234;BME280;43467;50.890;5.982;2022-11-20T07:36:42;99738.06;;;5.49;79.20
36234;BME280;43467;50.890;5.982;2022-11-20T07:39:07;99748.00;;;5.39;79.63
36234;BME280;43467;50.890;5.982;2022-11-20T07:41:32;99742.00;;;5.36;79.72
36234;BME280;43467;50.890;5.982;2022-11-20T07:43:58;99736.91;;;5.57;79.32
36234;BME280;43467;50.890;5.982;2022-11-20T07:46:23;99744.84;;;5.56;79.36
36234;BME280;43467;50.890;5.982;2022-11-20T07:48:48;99736.66;;;5.65;78.75
36234;BME280;43467;50.890;5.982;2022-11-20T07:51:14;99730.53;;;5.65;78.62
36234;BME280;43467;50.890;5.982;2022-11-20T07:53:39;99739.81;;;5.50;79.07
36234;BME280;43467;50.890;5.982;2022-11-20T07:56:05;99745.88;;;5.50;79.51
36234;BME280;43467;50.890;5.982;2022-11-20T07:58:31;99746.19;;;5.68;79.36
36234;BME280;43467;50.890;5.982;2022-11-20T08:01:01;99745.31;;;5.67;78.55
36234;BME280;43467;50.890;5.982;2022-11-20T08:03:27;99751.72;;;5.85;78.79
36234;BME280;43467;50.890;5.982;2022-11-20T08:05:52;99744.00;;;5.80;78.63
36234;BME280;43467;50.890;5.982;2022-11-20T08:08:17;99743.16;;;5.80;78.35
36234;BME280;43467;50.890;5.982;2022-11-20T08:10:43;99736.84;;;5.87;78.18
36234;BME280;43467;50.890;5.982;2022-11-20T08:13:08;99747.66;;;6.02;78.11
36234;BME280;43467;50.890;5.982;2022-11-20T08:15:52;99742.72;;;6.18;77.56
36234;BME280;43467;50.890;5.982;2022-11-20T08:18:18;99738.25;;;6.20;76.61
36234;BME280;43467;50.890;5.982;2022-11-20T08:20:44;99739.19;;;6.19;76.50
36234;BME280;43467;50.890;5.982;2022-11-20T08:23:09;99742.28;;;6.30;76.62
36234;BME280;43467;50.890;5.982;2022-11-20T08:25:36;99733.94;;;6.19;76.49
36234;BME280;43467;50.890;5.982;2022-11-20T08:28:04;99730.66;;;6.36;76.24
36234;BME280;43467;50.890;5.982;2022-11-20T08:30:30;99730.44;;;6.42;75.85
36234;BME280;43467;50.890;5.982;2022-11-20T08:33:04;99729.09;;;6.55;75.47
36234;BME280;43467;50.890;5.982;2022-11-20T08:35:34;99735.50;;;6.48;74.97
36234;BME280;43467;50.890;5.982;2022-11-20T08:38:00;99738.53;;;6.36;75.74
36234;BME280;43467;50.890;5.982;2022-11-20T08:40:26;99740.34;;;6.35;75.74
36234;BME280;43467;50.890;5.982;2022-11-20T08:42:51;99737.72;;;6.35;75.63
36234;BME280;43467;50.890;5.982;2022-11-20T08:45:18;99734.75;;;6.20;76.27
36234;BME280;43467;50.890;5.982;2022-11-20T08:47:44;99736.59;;;6.18;76.24
36234;BME280;43467;50.890;5.982;2022-11-20T08:50:10;99738.91;;;6.27;76.06
36234;BME280;43467;50.890;5.982;2022-11-20T08:52:37;99728.09;;;6.34;75.85
36234;BME280;43467;50.890;5.982;2022-11-20T08:55:03;99721.41;;;6.26;75.90
36234;BME280;43467;50.890;5.982;2022-11-20T08:57:31;99730.44;;;6.42;75.76
36234;BME280;43467;50.890;5.982;2022-11-20T08:59:57;99715.44;;;6.21;75.59
36234;BME280;43467;50.890;5.982;2022-11-20T09:02:22;99730.16;;;6.26;75.49
36234;BME280;43467;50.890;5.982;2022-11-20T09:04:47;99720.50;;;6.27;75.83
36234;BME280;43467;50.890;5.982;2022-11-20T09:07:13;99729.59;;;6.41;75.51
36234;BME280;43467;50.890;5.982;2022-11-20T09:09:38;99727.53;;;6.49;75.35
36234;BME280;43467;50.890;5.982;2022-11-20T09:12:04;99725.47;;;6.58;75.12
36234;BME280;43467;50.890;5.982;2022-11-20T09:14:29;99714.56;;;6.45;74.61
36234;BME280;43467;50.890;5.982;2022-11-20T09:16:56;99720.50;;;6.50;75.24
36234;BME280;43467;50.890;5.982;2022-11-20T09:19:21;99717.06;;;6.71;74.33
36234;BME280;43467;50.890;5.982;2022-11-20T09:21:46;99716.22;;;6.71;74.58
36234;BME280;43467;50.890;5.982;2022-11-20T09:24:12;99722.00;;;6.80;74.26
36234;BME280;43467;50.890;5.982;2022-11-20T09:26:37;99715.97;;;6.77;74.20
36234;BME280;43467;50.890;5.982;2022-11-20T09:29:02;99707.97;;;6.80;74.16
36234;BME280;43467;50.890;5.982;2022-11-20T09:31:28;99708.16;;;6.75;74.20
36234;BME280;43467;50.890;5.982;2022-11-20T09:33:53;99711.50;;;6.79;74.33
36234;BME280;43467;50.890;5.982;2022-11-20T09:36:19;99698.31;;;6.80;75.15
36234;BME280;43467;50.890;5.982;2022-11-20T09:38:45;99694.56;;;6.86;74.48
36234;BME280;43467;50.890;5.982;2022-11-20T09:44:30;99692.63;;;7.13;73.86
36234;BME280;43467;50.890;5.982;2022-11-20T09:47:07;99682.25;;;7.30;73.91
36234;BME280;43467;50.890;5.982;2022-11-20T09:50:02;99678.88;;;7.48;73.29
36234;BME280;43467;50.890;5.982;2022-11-20T09:55:16;99686.59;;;7.31;73.76
36234;BME280;43467;50.890;5.982;2022-11-20T09:57:44;99680.75;;;7.24;73.90
36234;BME280;43467;50.890;5.982;2022-11-20T10:00:14;99673.25;;;7.35;73.82
36234;BME280;43467;50.890;5.982;2022-11-20T10:05:21;99687.13;;;7.39;73.82
36234;BME280;43467;50.890;5.982;2022-11-20T10:21:27;99655.69;;;7.56;74.53
36234;BME280;43467;50.890;5.982;2022-11-20T10:29:19;99639.06;;;7.74;74.21
36234;BME280;43467;50.890;5.982;2022-11-20T10:31:56;99637.97;;;7.80;74.76
36234;BME280;43467;50.890;5.982;2022-11-20T10:34:23;99642.13;;;7.85;74.70
36234;BME280;43467;50.890;5.982;2022-11-20T10:36:57;99637.41;;;7.92;75.05
36234;BME280;43467;50.890;5.982;2022-11-20T10:40:27;99628.91;;;8.06;74.87
36234;BME280;43467;50.890;5.982;2022-11-20T10:42:43;99623.22;;;8.15;74.69
36234;BME280;43467;50.890;5.982;2022-11-20T10:47:54;99620.16;;;8.24;74.71
36234;BME280;43467;50.890;5.982;2022-11-20T10:50:21;99615.03;;;8.39;74.45
36234;BME280;43467;50.890;5.982;2022-11-20T10:55:32;99606.22;;;8.59;73.75
36234;BME280;43467;50.890;5.982;2022-11-20T10:58:07;99604.00;;;8.50;73.82
36234;BME280;43467;50.890;5.982;2022-11-20T11:00:35;99597.28;;;8.62;74.27
36234;BME280;43467;50.890;5.982;2022-11-20T11:03:00;99600.34;;;8.71;73.75
36234;BME280;43467;50.890;5.982;2022-11-20T11:08:07;99576.94;;;8.82;73.42
36234;BME280;43467;50.890;5.982;2022-11-20T11:10:46;99567.38;;;8.97;73.84
36234;BME280;43467;50.890;5.982;2022-11-20T11:13:25;99561.13;;;9.00;73.77
36234;BME280;43467;50.890;5.982;2022-11-20T11:15:51;99551.66;;;9.13;73.55
36234;BME280;43467;50.890;5.982;2022-11-20T11:18:32;99545.13;;;9.20;72.95
36234;BME280;43467;50.890;5.982;2022-11-20T11:20:59;99553.19;;;9.34;73.11
36234;BME280;43467;50.890;5.982;2022-11-20T11:26:04;99547.88;;;9.51;72.71
36234;BME280;43467;50.890;5.982;2022-11-20T11:28:29;99542.66;;;9.50;72.96
36234;BME280;43467;50.890;5.982;2022-11-20T11:30:55;99537.13;;;9.54;72.90
36234;BME280;43467;50.890;5.982;2022-11-20T11:33:23;99524.88;;;9.53;73.00
36234;BME280;43467;50.890;5.982;2022-11-20T11:35:52;99528.06;;;9.60;73.09
36234;BME280;43467;50.890;5.982;2022-11-20T11:38:41;99528.09;;;9.75;72.74
36234;BME280;43467;50.890;5.982;2022-11-20T11:41:19;99514.00;;;9.75;73.14
36234;BME280;43467;50.890;5.982;2022-11-20T11:43:53;99509.41;;;9.78;72.54
36234;BME280;43467;50.890;5.982;2022-11-20T11:46:39;99516.09;;;9.86;72.76
36234;BME280;43467;50.890;5.982;2022-11-20T11:54:24;99502.53;;;10.07;72.54
36234;BME280;43467;50.890;5.982;2022-11-20T11:56:51;99493.06;;;10.03;72.47
36234;BME280;43467;50.890;5.982;2022-11-20T11:59:34;99487.44;;;10.09;72.03
36234;BME280;43467;50.890;5.982;2022-11-20T12:02:22;99484.69;;;10.11;72.60
36234;BME280;43467;50.890;5.982;2022-11-20T12:04:57;99488.97;;;10.13;72.11
36234;BME280;43467;50.890;5.982;2022-11-20T12:07:43;99483.69;;;10.13;72.58
36234;BME280;43467;50.890;5.982;2022-11-20T12:10:48;99479.88;;;10.19;72.48
36234;BME280;43467;50.890;5.982;2022-11-20T12:15:47;99455.81;;;10.23;72.64
36234;BME280;43467;50.890;5.982;2022-11-20T12:18:18;99468.03;;;10.26;72.99
36234;BME280;43467;50.890;5.982;2022-11-20T12:39:42;99428.06;;;10.15;74.26
36234;BME280;43467;50.890;5.982;2022-11-20T12:48:03;99419.00;;;10.03;74.08
36234;BME280;43467;50.890;5.982;2022-11-20T12:50:57;99416.53;;;10.00;73.55
36234;BME280;43467;50.890;5.982;2022-11-20T12:56:30;99400.16;;;10.09;73.19
36234;BME280;43467;50.890;5.982;2022-11-20T13:01:52;99391.66;;;9.89;73.66
36234;BME280;43467;50.890;5.982;2022-11-20T13:07:02;99383.63;;;9.90;73.75
36234;BME280;43467;50.890;5.982;2022-11-20T13:09:29;99378.78;;;9.98;73.89
36234;BME280;43467;50.890;5.982;2022-11-20T13:16:23;99374.59;;;9.78;73.64
36234;BME280;43467;50.890;5.982;2022-11-20T13:18:14;99367.25;;;9.84;73.94
36234;BME280;43467;50.890;5.982;2022-11-20T13:20:44;99361.22;;;9.82;73.99
36234;BME280;43467;50.890;5.982;2022-11-20T13:23:09;99354.72;;;9.71;73.85
36234;BME280;43467;50.890;5.982;2022-11-20T13:25:37;99352.69;;;9.61;74.26
36234;BME280;43467;50.890;5.982;2022-11-20T13:30:30;99356.34;;;9.58;74.16
36234;BME280;43467;50.890;5.982;2022-11-20T13:35:30;99339.91;;;9.69;73.85
36234;BME280;43467;50.890;5.982;2022-11-20T13:38:14;99328.66;;;9.65;73.61
36234;BME280;43467;50.890;5.982;2022-11-20T13:40:53;99325.31;;;9.77;73.76
36234;BME280;43467;50.890;5.982;2022-11-20T13:46:01;99323.50;;;9.94;73.16
36234;BME280;43467;50.890;5.982;2022-11-20T13:48:33;99319.06;;;9.94;73.15
36234;BME280;43467;50.890;5.982;2022-11-20T13:53:54;99311.47;;;9.88;72.77
36234;BME280;43467;50.890;5.982;2022-11-20T14:01:51;99297.66;;;9.83;72.58
36234;BME280;43467;50.890;5.982;2022-11-20T14:04:22;99303.03;;;9.66;72.76
36234;BME280;43467;50.890;5.982;2022-11-20T14:06:51;99297.28;;;9.59;73.33
36234;BME280;43467;50.890;5.982;2022-11-20T14:09:28;99288.75;;;9.54;72.89
36234;BME280;43467;50.890;5.982;2022-11-20T14:11:53;99296.59;;;9.56;73.46
36234;BME280;43467;50.890;5.982;2022-11-20T14:14:21;99293.03;;;9.41;73.58
36234;BME280;43467;50.890;5.982;2022-11-20T14:16:48;99299.06;;;9.27;74.19
36234;BME280;43467;50.890;5.982;2022-11-20T14:21:47;99283.72;;;9.03;72.84
36234;BME280;43467;50.890;5.982;2022-11-20T14:24:14;99279.72;;;8.96;74.04
36234;BME280;43467;50.890;5.982;2022-11-20T14:26:44;99266.22;;;8.84;74.25
36234;BME280;43467;50.890;5.982;2022-11-20T14:29:15;99265.72;;;8.78;74.63
36234;BME280;43467;50.890;5.982;2022-11-20T14:31:42;99258.22;;;8.70;75.15
36234;BME280;43467;50.890;5.982;2022-11-20T14:34:19;99257.38;;;8.85;75.98
36234;BME280;43467;50.890;5.982;2022-11-20T14:36:45;99256.63;;;8.83;75.31
36234;BME280;43467;50.890;5.982;2022-11-20T14:39:12;99241.91;;;8.95;75.98
36234;BME280;43467;50.890;5.982;2022-11-20T14:41:51;99244.88;;;9.05;76.30
36234;BME280;43467;50.890;5.982;2022-11-20T14:44:17;99248.03;;;8.96;76.20
36234;BME280;43467;50.890;5.982;2022-11-20T14:46:45;99228.28;;;9.03;77.51
36234;BME280;43467;50.890;5.982;2022-11-20T14:49:11;99234.97;;;8.93;77.79
36234;BME280;43467;50.890;5.982;2022-11-20T14:51:38;99222.81;;;8.90;77.28
36234;BME280;43467;50.890;5.982;2022-11-20T14:54:15;99210.03;;;8.98;77.62
36234;BME280;43467;50.890;5.982;2022-11-20T14:56:42;99203.84;;;8.99;78.41
36234;BME280;43467;50.890;5.982;2022-11-20T14:59:26;99198.31;;;9.04;78.72
36234;BME280;43467;50.890;5.982;2022-11-20T15:02:09;99201.38;;;9.12;78.53
36234;BME280;43467;50.890;5.982;2022-11-20T15:04:57;99179.81;;;9.04;77.99
36234;BME280;43467;50.890;5.982;2022-11-20T15:07:30;99179.31;;;9.13;78.13